Toad Hop, Indiana
Current Conditions -  °F | °C
As of 7:53 PM on Wednesday 17 Dec 2014 (Local Time) from KHUF Reporting Station
Overcast Overcast  
Wind Chill: 18°   Ceiling: 1300
Heat Index: 24°   Visibility: 10mi
Dew Point: 19°   Wind: 5mph
Humidity: 81%   Direction: 340°NNW
Pressure: 30.31"   Gusts: NA
Location:  39.5107°N, 87.4772°W
Report Text: KHUF 180053Z 34004KT 10SM OVC013 M04/M07 A3031 RMK AO2 SLP273 T10441072
Loading
Personal Weather Stations






























Interactive Weather Map New forecast layout! Learn more

10-Day Weather Forecast

Advertisements
Track Severe Weather on mobile